createdAt,value
2022-08-04T00:00:21.529Z,70.73
2022-08-04T00:03:19.580Z,72.77
2022-08-04T00:06:09.583Z,73.84
2022-08-04T00:08:55.542Z,74.84
2022-08-04T00:11:28.831Z,75.31
2022-08-04T00:14:05.082Z,75.08
2022-08-04T00:16:42.255Z,74.43
2022-08-04T00:19:13.947Z,75.38
2022-08-04T00:22:03.594Z,74.15
2022-08-04T00:24:43.750Z,75.32
2022-08-04T00:27:14.116Z,72.78
2022-08-04T00:29:49.720Z,71.47
2022-08-04T00:32:33.883Z,74.59
2022-08-04T00:35:04.511Z,74.02
2022-08-04T00:37:34.242Z,75.60
2022-08-04T00:40:14.282Z,77.23
2022-08-04T00:43:11.975Z,78.42
2022-08-04T00:46:15.388Z,78.08
2022-08-04T00:49:03.574Z,78.91
2022-08-04T00:51:48.579Z,79.64
2022-08-04T00:54:57.904Z,79.83
2022-08-04T00:57:34.217Z,79.49
2022-08-04T01:00:14.025Z,79.64
2022-08-04T01:02:51.713Z,79.78
2022-08-04T01:05:29.501Z,80.17
2022-08-04T01:08:28.702Z,80.27
2022-08-04T01:11:27.668Z,79.35
2022-08-04T01:17:14.880Z,78.23
2022-08-04T01:20:02.624Z,78.16
2022-08-04T01:22:34.368Z,75.46
2022-08-04T01:25:08.720Z,75.37
2022-08-04T01:27:50.574Z,76.15
2022-08-04T01:30:19.641Z,78.18
2022-08-04T01:33:09.233Z,78.40
2022-08-04T01:35:52.353Z,79.02
2022-08-04T01:38:34.345Z,81.69
2022-08-04T01:41:18.322Z,82.81
2022-08-04T01:44:03.266Z,84.31
2022-08-04T01:46:35.011Z,84.95
2022-08-04T01:49:13.180Z,85.53
2022-08-04T01:51:42.741Z,85.83
2022-08-04T01:54:13.868Z,85.65
2022-08-04T01:56:47.780Z,85.44
2022-08-04T01:59:20.605Z,84.57
2022-08-04T02:02:00.900Z,84.65
2022-08-04T02:04:29.933Z,84.78
2022-08-04T02:07:26.514Z,83.76
2022-08-04T02:10:14.513Z,85.10
2022-08-04T02:13:12.387Z,84.60
2022-08-04T02:16:14.128Z,85.08
2022-08-04T02:19:15.965Z,85.07
2022-08-04T02:21:56.312Z,85.21
2022-08-04T02:24:28.430Z,84.58
2022-08-04T02:26:57.310Z,85.89
2022-08-04T02:30:00.665Z,86.51
2022-08-04T02:32:39.995Z,86.69
2022-08-04T02:39:09.249Z,87.05
2022-08-04T02:41:51.509Z,87.56
2022-08-04T02:44:24.487Z,87.71
2022-08-04T02:46:55.122Z,85.25
2022-08-04T02:49:42.688Z,86.90
2022-08-04T02:52:12.955Z,87.83
2022-08-04T02:54:43.393Z,87.55
2022-08-04T02:57:15.913Z,89.90
2022-08-04T03:03:17.049Z,88.56
2022-08-04T03:06:10.572Z,90.84
2022-08-04T03:09:24.970Z,90.22
2022-08-04T03:12:15.248Z,90.94
2022-08-04T03:15:02.865Z,91.89
2022-08-04T03:18:10.364Z,91.49
2022-08-04T03:21:11.837Z,92.40
2022-08-04T03:23:55.275Z,90.64
2022-08-04T03:26:59.040Z,90.44
2022-08-04T03:30:13.186Z,89.40
2022-08-04T03:33:03.747Z,89.22
2022-08-04T03:35:50.757Z,87.24
2022-08-04T03:38:57.561Z,87.77
2022-08-04T03:42:05.208Z,86.87
2022-08-04T03:45:48.992Z,86.15
2022-08-04T03:48:24.766Z,87.13
2022-08-04T03:51:36.291Z,87.74
2022-08-04T03:54:27.045Z,86.01
2022-08-04T03:57:21.920Z,90.68
2022-08-04T04:00:06.925Z,89.73
2022-08-04T04:03:11.575Z,87.03
2022-08-04T04:06:03.225Z,86.53
2022-08-04T04:09:00.522Z,87.12
2022-08-04T04:11:58.274Z,86.66
2022-08-04T04:14:46.109Z,86.58
2022-08-04T04:18:03.036Z,87.06
2022-08-04T04:20:49.833Z,84.72
2022-08-04T04:23:40.095Z,84.13
2022-08-04T04:26:30.717Z,83.33
2022-08-04T04:29:27.849Z,83.18
2022-08-04T04:32:15.518Z,82.75
2022-08-04T04:35:03.826Z,83.94
2022-08-04T04:38:05.625Z,82.77
2022-08-04T04:41:07.898Z,83.81
2022-08-04T04:43:54.912Z,82.76
2022-08-04T04:46:32.736Z,82.31
2022-08-04T04:49:44.216Z,82.38
2022-08-04T04:52:21.291Z,82.42
2022-08-04T04:55:00.937Z,81.64
2022-08-04T04:57:53.370Z,81.61
2022-08-04T05:00:28.989Z,80.65
2022-08-04T05:03:09.004Z,80.24
2022-08-04T05:06:07.390Z,79.54
2022-08-04T05:08:54.358Z,79.13
2022-08-04T05:11:31.567Z,79.74
2022-08-04T05:14:41.510Z,78.68
2022-08-04T05:17:22.925Z,79.19
2022-08-04T05:20:03.573Z,78.92
2022-08-04T05:22:35.778Z,78.58
2022-08-04T05:26:40.987Z,78.56
2022-08-04T05:31:59.933Z,77.52
2022-08-04T05:34:39.788Z,78.09
2022-08-04T05:37:22.119Z,77.91
2022-08-04T05:39:57.756Z,78.05
2022-08-04T05:42:59.811Z,77.94
2022-08-04T05:45:30.314Z,78.56
2022-08-04T05:51:28.464Z,77.13
2022-08-04T05:53:58.261Z,76.49
2022-08-04T05:56:27.919Z,76.83
2022-08-04T05:58:57.405Z,77.56
2022-08-04T06:01:28.522Z,77.38
2022-08-04T06:03:59.802Z,77.35
2022-08-04T06:06:31.371Z,76.57
2022-08-04T06:09:00.234Z,75.88
2022-08-04T06:11:30.265Z,75.47
2022-08-04T06:14:03.573Z,76.02
2022-08-04T06:16:48.191Z,75.72
2022-08-04T06:20:04.007Z,75.46
2022-08-04T06:22:14.364Z,75.45
2022-08-04T06:24:45.605Z,75.45
2022-08-04T06:27:17.460Z,74.55
2022-08-04T06:29:51.196Z,74.55
2022-08-04T06:32:41.280Z,74.10
2022-08-04T06:35:11.390Z,73.35
2022-08-04T06:37:43.721Z,73.24
2022-08-04T06:40:31.205Z,72.28
2022-08-04T06:43:05.269Z,71.85
2022-08-04T06:45:40.240Z,70.69
2022-08-04T06:48:12.805Z,69.97
2022-08-04T06:51:27.497Z,69.77
2022-08-04T06:53:58.717Z,69.21
2022-08-04T06:56:29.465Z,67.95
2022-08-04T06:59:01.727Z,67.68
2022-08-04T07:01:32.171Z,66.95
2022-08-04T07:04:01.047Z,67.35
2022-08-04T07:06:30.373Z,66.54
2022-08-04T07:08:59.790Z,65.35
2022-08-04T07:11:28.964Z,64.99
2022-08-04T07:14:08.787Z,64.06
2022-08-04T07:16:40.732Z,64.33
2022-08-04T07:19:10.020Z,63.93
2022-08-04T07:21:40.894Z,62.90
2022-08-04T07:24:37.320Z,61.43
2022-08-04T07:27:09.433Z,61.11
2022-08-04T07:29:42.941Z,59.80
2022-08-04T07:32:14.673Z,59.66
2022-08-04T07:34:49.761Z,58.31
2022-08-04T07:37:20.980Z,57.57
2022-08-04T07:40:18.721Z,56.91
2022-08-04T07:42:48.144Z,56.26
2022-08-04T07:45:24.974Z,56.40
2022-08-04T07:48:05.088Z,55.63
2022-08-04T07:50:38.374Z,54.16
2022-08-04T07:53:55.047Z,53.36
2022-08-04T07:56:04.030Z,52.25
2022-08-04T07:58:42.851Z,52.73
2022-08-04T08:01:17.036Z,52.69
2022-08-04T08:03:54.145Z,51.74
2022-08-04T08:06:31.508Z,50.43
2022-08-04T08:09:21.458Z,50.36
2022-08-04T08:12:35.579Z,50.14
2022-08-04T08:14:48.110Z,48.63
2022-08-04T08:17:20.575Z,48.88
2022-08-04T08:20:01.729Z,49.29
2022-08-04T08:22:43.885Z,48.66
2022-08-04T08:25:16.985Z,47.22
2022-08-04T08:27:55.938Z,47.94
2022-08-04T08:30:32.127Z,47.11
2022-08-04T08:33:06.517Z,46.87
2022-08-04T08:35:53.137Z,46.05
2022-08-04T08:38:29.313Z,45.83
2022-08-04T08:41:54.490Z,45.51
2022-08-04T08:44:57.814Z,44.85
2022-08-04T08:48:04.739Z,45.09
2022-08-04T08:50:53.693Z,44.82
2022-08-04T08:53:35.319Z,43.19
2022-08-04T08:56:31.346Z,43.80
2022-08-04T08:59:21.849Z,43.55
2022-08-04T09:02:18.864Z,42.95
2022-08-04T09:05:16.003Z,43.18
2022-08-04T09:08:10.001Z,43.63
2022-08-04T09:10:53.994Z,42.87
2022-08-04T09:13:43.988Z,41.51
2022-08-04T09:16:37.267Z,42.13
2022-08-04T09:19:38.676Z,41.51
2022-08-04T09:22:35.497Z,39.96
2022-08-04T09:25:28.248Z,40.36
2022-08-04T09:28:43.615Z,40.57
2022-08-04T09:31:24.317Z,40.90
2022-08-04T09:34:08.136Z,39.88
2022-08-04T09:36:46.815Z,40.25
2022-08-04T09:39:27.659Z,38.92
2022-08-04T09:42:12.031Z,39.83
2022-08-04T09:45:05.880Z,39.50
2022-08-04T09:47:47.152Z,37.30
2022-08-04T09:50:28.455Z,37.89
2022-08-04T09:53:03.303Z,37.82
2022-08-04T09:55:53.859Z,38.86
2022-08-04T09:58:54.519Z,36.81
2022-08-04T10:01:29.333Z,36.88
2022-08-04T10:07:07.475Z,35.55
2022-08-04T10:09:39.348Z,34.86
2022-08-04T10:12:25.658Z,35.68
2022-08-04T10:15:04.979Z,35.46
2022-08-04T10:17:57.331Z,35.01
2022-08-04T10:20:45.776Z,35.80
2022-08-04T10:23:24.217Z,33.77
2022-08-04T10:26:07.207Z,33.41
2022-08-04T10:28:49.722Z,32.70
2022-08-04T10:31:27.327Z,31.91
2022-08-04T10:34:06.427Z,33.06
2022-08-04T10:36:56.413Z,32.85
2022-08-04T10:39:42.195Z,32.09
2022-08-04T10:42:27.818Z,32.08
2022-08-04T10:45:12.903Z,33.41
2022-08-04T10:47:59.487Z,34.17
2022-08-04T10:50:30.890Z,32.69
2022-08-04T10:53:10.549Z,33.04
2022-08-04T10:56:09.853Z,32.58
2022-08-04T10:58:48.800Z,32.55
2022-08-04T11:01:50.960Z,32.62
2022-08-04T11:04:28.555Z,32.63
2022-08-04T11:07:00.937Z,32.47
2022-08-04T11:09:32.079Z,32.30
2022-08-04T11:12:20.204Z,32.25
2022-08-04T11:15:32.539Z,32.42
2022-08-04T11:18:17.468Z,32.66
2022-08-04T11:20:55.007Z,32.52
2022-08-04T11:23:30.044Z,32.66
2022-08-04T11:26:03.436Z,31.28
2022-08-04T11:28:58.492Z,31.40
2022-08-04T11:31:36.914Z,31.60
2022-08-04T11:34:26.022Z,32.27
2022-08-04T11:37:17.732Z,32.26
2022-08-04T11:43:12.954Z,30.08
2022-08-04T11:46:10.475Z,30.34
2022-08-04T11:49:07.186Z,29.66
2022-08-04T11:51:45.747Z,29.86
2022-08-04T11:54:26.381Z,30.77
2022-08-04T11:57:03.380Z,30.85
2022-08-04T11:59:36.019Z,31.46
2022-08-04T12:02:25.331Z,31.08
2022-08-04T12:08:04.159Z,30.60
2022-08-04T12:11:03.217Z,30.44
2022-08-04T12:14:04.697Z,29.73
2022-08-04T12:17:01.941Z,29.78
2022-08-04T12:20:31.942Z,28.80
2022-08-04T12:22:56.508Z,27.61
2022-08-04T12:25:35.517Z,27.68
2022-08-04T12:28:52.604Z,26.65
2022-08-04T12:32:05.012Z,24.99
2022-08-04T12:34:43.852Z,22.49
2022-08-04T12:37:50.732Z,21.89
2022-08-04T12:40:39.040Z,22.15
2022-08-04T12:43:38.861Z,21.74
2022-08-04T12:46:10.540Z,22.62
2022-08-04T12:48:44.981Z,20.84
2022-08-04T12:51:30.893Z,20.13
2022-08-04T12:54:05.895Z,20.43
2022-08-04T12:56:35.721Z,19.85
2022-08-04T12:59:12.713Z,19.60
2022-08-04T13:02:08.013Z,19.18
2022-08-04T13:04:42.866Z,18.15
2022-08-04T13:07:25.025Z,17.85
2022-08-04T13:09:53.734Z,17.09
2022-08-04T13:12:32.656Z,16.70
2022-08-04T13:15:17.722Z,16.57
2022-08-04T13:17:57.320Z,16.56
2022-08-04T13:20:37.087Z,16.74
2022-08-04T13:26:44.708Z,16.69
2022-08-04T13:28:49.444Z,16.34
2022-08-04T13:31:23.708Z,15.73
2022-08-04T13:34:05.591Z,15.34
2022-08-04T13:36:37.471Z,15.66
2022-08-04T13:42:12.911Z,15.00
2022-08-04T13:44:53.704Z,14.83
2022-08-04T13:47:37.345Z,14.88
2022-08-04T13:50:27.952Z,14.35
2022-08-04T13:53:01.542Z,13.85
2022-08-04T13:55:35.851Z,14.35
2022-08-04T13:58:21.951Z,14.22
2022-08-04T14:01:01.146Z,13.98
2022-08-04T14:03:53.562Z,14.10
2022-08-04T14:06:29.070Z,14.53
2022-08-04T14:09:00.446Z,14.23
2022-08-04T14:12:07.145Z,14.80
2022-08-04T14:14:31.465Z,14.42
2022-08-04T14:17:20.549Z,14.03
2022-08-04T14:20:06.204Z,13.79
2022-08-04T14:22:37.049Z,14.07
2022-08-04T14:25:17.169Z,13.98
2022-08-04T14:27:56.946Z,13.89
2022-08-04T14:30:36.540Z,13.56
2022-08-04T14:34:01.877Z,13.91
2022-08-04T14:36:03.851Z,13.98
2022-08-04T14:38:51.959Z,13.85
2022-08-04T14:41:23.851Z,13.58
2022-08-04T14:46:56.127Z,12.83
2022-08-04T14:49:24.539Z,13.12
2022-08-04T14:51:57.194Z,13.21
2022-08-04T14:54:28.761Z,12.81
2022-08-04T14:57:03.923Z,12.61
2022-08-04T15:00:00.817Z,12.19
2022-08-04T15:02:39.232Z,12.35
2022-08-04T15:05:59.808Z,12.47
2022-08-04T15:07:57.238Z,12.56
2022-08-04T15:10:28.482Z,12.51
2022-08-04T15:12:59.289Z,12.36
2022-08-04T15:15:36.898Z,12.46
2022-08-04T15:18:10.718Z,12.12
2022-08-04T15:23:25.211Z,12.09
2022-08-04T15:26:51.325Z,11.91
2022-08-04T15:29:27.725Z,11.85
2022-08-04T15:32:03.993Z,12.31
2022-08-04T15:34:51.525Z,12.45
2022-08-04T15:37:29.955Z,12.36
2022-08-04T15:40:07.836Z,12.53
2022-08-04T15:42:39.457Z,12.45
2022-08-04T15:45:17.055Z,12.69
2022-08-04T15:48:08.708Z,12.89
2022-08-04T15:51:00.106Z,12.75
2022-08-04T15:54:03.483Z,12.88
2022-08-04T15:56:27.979Z,13.10
2022-08-04T15:58:58.771Z,13.15
2022-08-04T16:01:28.197Z,13.25
2022-08-04T16:04:01.458Z,13.50
2022-08-04T16:06:41.816Z,13.08
2022-08-04T16:09:22.857Z,13.47
2022-08-04T16:11:52.473Z,13.51
2022-08-04T16:14:32.150Z,13.69
2022-08-04T16:17:18.523Z,13.63
2022-08-04T16:20:05.432Z,13.70
2022-08-04T16:22:42.309Z,13.79
2022-08-04T16:25:12.407Z,14.39
2022-08-04T16:27:43.563Z,14.06
2022-08-04T16:30:17.634Z,13.94
2022-08-04T16:32:47.968Z,14.30
2022-08-04T16:35:26.624Z,14.30
2022-08-04T16:38:13.992Z,14.75
2022-08-04T16:40:46.332Z,14.89
2022-08-04T16:43:22.699Z,15.10
2022-08-04T16:46:02.031Z,15.28
2022-08-04T16:48:32.623Z,15.50
2022-08-04T16:51:08.011Z,15.42
2022-08-04T16:53:53.434Z,15.94
2022-08-04T16:56:34.682Z,16.23
2022-08-04T16:59:08.682Z,16.48
2022-08-04T17:01:40.925Z,16.79
2022-08-04T17:04:11.992Z,17.11
2022-08-04T17:06:44.538Z,17.29
2022-08-04T17:09:18.995Z,17.21
2022-08-04T17:11:48.621Z,17.53
2022-08-04T17:14:27.115Z,17.69
2022-08-04T17:16:59.119Z,17.86
2022-08-04T17:19:27.666Z,18.36
2022-08-04T17:22:10.456Z,18.68
2022-08-04T17:24:41.276Z,18.92
2022-08-04T17:28:20.506Z,19.28
2022-08-04T17:30:00.099Z,19.76
2022-08-04T17:32:29.391Z,20.33
2022-08-04T17:35:02.277Z,20.62
2022-08-04T17:40:25.565Z,21.73
2022-08-04T17:44:04.719Z,22.21
2022-08-04T17:46:28.858Z,23.10
2022-08-04T17:49:12.907Z,23.91
2022-08-04T17:54:43.308Z,25.77
2022-08-04T17:57:33.839Z,26.03
2022-08-04T18:00:02.223Z,26.68
2022-08-04T18:02:46.709Z,27.32
2022-08-04T18:06:01.595Z,27.86
2022-08-04T18:08:37.747Z,27.84
2022-08-04T18:11:42.147Z,28.51
2022-08-04T18:14:10.915Z,28.90
2022-08-04T18:16:45.765Z,29.12
2022-08-04T18:19:19.097Z,29.59
2022-08-04T18:22:00.434Z,30.02
2022-08-04T18:24:56.381Z,30.59
2022-08-04T18:27:29.962Z,31.01
2022-08-04T18:30:27.982Z,31.33
2022-08-04T18:33:24.335Z,31.13
2022-08-04T18:36:33.183Z,32.12
2022-08-04T18:41:16.131Z,32.75
2022-08-04T18:43:56.031Z,32.86
2022-08-04T18:46:34.601Z,32.75
2022-08-04T18:49:03.109Z,33.07
2022-08-04T18:51:32.424Z,33.74
2022-08-04T18:54:01.483Z,34.35
2022-08-04T18:56:55.892Z,33.81
2022-08-04T18:59:38.661Z,33.98
2022-08-04T19:02:23.116Z,34.27
2022-08-04T19:08:11.149Z,35.73
2022-08-04T19:10:31.938Z,36.28
2022-08-04T19:13:24.916Z,36.09
2022-08-04T19:15:59.911Z,36.31
2022-08-04T19:18:30.163Z,36.79
2022-08-04T19:20:59.993Z,37.28
2022-08-04T19:24:27.670Z,38.05
2022-08-04T19:26:58.864Z,36.97
2022-08-04T19:29:37.156Z,37.56
2022-08-04T19:32:21.535Z,37.95
2022-08-04T19:34:57.365Z,37.87
2022-08-04T19:37:56.703Z,38.73
2022-08-04T19:40:33.618Z,38.78
2022-08-04T19:46:24.973Z,39.33
2022-08-04T19:52:33.489Z,38.73
2022-08-04T19:55:09.878Z,40.44
2022-08-04T19:57:49.512Z,41.11
2022-08-04T20:00:33.753Z,41.90
2022-08-04T20:03:03.595Z,41.29
2022-08-04T20:05:53.370Z,41.93
2022-08-04T20:08:27.996Z,42.88
2022-08-04T20:10:57.902Z,43.52
2022-08-04T20:16:30.348Z,44.21
2022-08-04T20:19:03.790Z,43.59
2022-08-04T20:21:54.016Z,44.37
2022-08-04T20:24:36.437Z,44.47
2022-08-04T20:27:11.638Z,44.46
2022-08-04T20:32:34.572Z,45.11
2022-08-04T20:35:04.263Z,45.17
2022-08-04T20:37:55.111Z,45.54
2022-08-04T20:40:21.052Z,45.68
2022-08-04T20:42:50.836Z,46.92
2022-08-04T20:45:22.774Z,47.44
2022-08-04T20:47:53.281Z,47.55
2022-08-04T20:50:29.524Z,48.21
2022-08-04T20:52:59.387Z,47.98
2022-08-04T20:55:29.606Z,48.84
2022-08-04T20:58:03.268Z,49.81
2022-08-04T21:00:32.403Z,49.87
2022-08-04T21:03:00.713Z,50.76
2022-08-04T21:05:31.355Z,51.66
2022-08-04T21:08:00.346Z,52.70
2022-08-04T21:10:30.687Z,52.68
2022-08-04T21:12:59.372Z,52.37
2022-08-04T21:15:58.772Z,53.14
2022-08-04T21:18:16.869Z,53.25
2022-08-04T21:20:48.201Z,53.59
2022-08-04T21:23:16.969Z,53.78
2022-08-04T21:25:51.149Z,54.04
2022-08-04T21:28:25.689Z,54.37
2022-08-04T21:30:56.815Z,54.64
2022-08-04T21:33:51.119Z,54.91
2022-08-04T21:36:19.802Z,55.07
2022-08-04T21:38:51.267Z,54.84
2022-08-04T21:41:25.030Z,55.27
2022-08-04T21:43:56.337Z,55.80
2022-08-04T21:46:30.335Z,54.94
2022-08-04T21:49:01.061Z,54.42
2022-08-04T21:52:00.597Z,53.90
2022-08-04T21:54:22.737Z,55.46
2022-08-04T21:56:53.020Z,55.79
2022-08-04T21:59:45.004Z,54.31
2022-08-04T22:02:14.608Z,54.11
2022-08-04T22:04:44.547Z,54.21
2022-08-04T22:07:16.335Z,55.25
2022-08-04T22:10:02.248Z,55.29
2022-08-04T22:12:33.637Z,55.20
2022-08-04T22:15:02.545Z,55.09
2022-08-04T22:17:51.039Z,54.85
2022-08-04T22:20:27.342Z,55.66
2022-08-04T22:23:03.433Z,55.88
2022-08-04T22:25:53.760Z,54.56
2022-08-04T22:28:28.368Z,56.11
2022-08-04T22:30:58.535Z,57.94
2022-08-04T22:33:55.258Z,58.61
2022-08-04T22:36:16.953Z,58.57
2022-08-04T22:38:50.053Z,58.68
2022-08-04T22:41:33.971Z,58.34
2022-08-04T22:46:54.313Z,58.91
2022-08-04T22:49:23.807Z,58.20
2022-08-04T22:52:09.606Z,57.32
2022-08-04T22:54:42.268Z,58.11
2022-08-04T22:57:12.632Z,58.07
2022-08-04T22:59:43.299Z,59.35
2022-08-04T23:02:11.886Z,59.61
2022-08-04T23:04:43.173Z,59.88
2022-08-04T23:07:12.747Z,60.06
2022-08-04T23:09:49.193Z,59.99
2022-08-04T23:12:26.045Z,60.28
2022-08-04T23:14:59.492Z,61.23
2022-08-04T23:17:43.705Z,61.47
2022-08-04T23:20:23.661Z,61.26
2022-08-04T23:23:14.850Z,61.21
2022-08-04T23:26:07.100Z,62.63
2022-08-04T23:28:34.190Z,63.98
2022-08-04T23:31:04.437Z,64.75
2022-08-04T23:33:50.460Z,65.20
2022-08-04T23:36:30.062Z,65.52
2022-08-04T23:39:01.022Z,64.90
2022-08-04T23:41:54.083Z,65.69
2022-08-04T23:44:25.221Z,65.76
2022-08-04T23:47:02.409Z,66.81
2022-08-04T23:49:42.255Z,66.67
2022-08-04T23:52:23.313Z,67.25
2022-08-04T23:54:59.470Z,65.77
2022-08-04T23:58:02.269Z,65.96
